»·PEaware :: ASA180 KLAS-KSFO

ASA180 :: KLAS-KSFO

FLIGHT INFORMATION

Flight Status: Arrived
Operator:
Alaska Airlines
More flights by this operator :: More flights under this callsign
Pilot: Etienne B. (28927)
Aircraft: AIRBUS A320
(A320)
More flights by this aircraft type
Origin: KLAS McCarran Intl
United States
Destination: KSFO San Francisco Intl
United States
More flights between these airports :: More routes between these airports
Route: SHEAD1 KENNO RUSME DYAMD5
File this flight plan on PilotEdge
Remarks: RMK / SIMBRIEF
Altitude:
(Current/Filed)
30,000ft
Speed:
(Current/Filed)
414kts
Departed: 20-Apr-20 05:23 PM
Arrived: 20-Apr-20 06:30 PM
Distance/Time
Traveled:
359nm/1:07
Distance/Time
To Go:
Arrived

Flight Plot

Page will automatically refresh every two minutes.

Flight plan parsing failed; only flown route is shown


Map Options




Map Legend


Flown Route
Filed Route
Departure Airport
Arrival Airport
Navaid (VOR, NDB)
Fix

Horizontal Profiles

Position Reports

Time Latitude Longitude Heading Altitude Ground
Speed
20-Apr-20 16:57 36.086551 -115.153608 85 2107ft 0kts
20-Apr-20 16:58 36.086551 -115.153608 85 2107ft 0kts
20-Apr-20 16:59 36.086551 -115.153608 85 2107ft 0kts
20-Apr-20 17:00 36.086551 -115.153608 85 2107ft 0kts
20-Apr-20 17:01 36.086551 -115.153608 85 2107ft 0kts
20-Apr-20 17:02 36.086551 -115.153608 85 2107ft 0kts
20-Apr-20 17:03 36.086551 -115.153608 85 2107ft 0kts
20-Apr-20 17:04 36.086551 -115.153608 85 2107ft 0kts
20-Apr-20 17:05 36.086551 -115.153608 85 2107ft 0kts
20-Apr-20 17:06 36.086551 -115.153608 85 2107ft 0kts
20-Apr-20 17:07 36.086551 -115.153608 85 2107ft 0kts
20-Apr-20 17:08 36.086550 -115.153622 85 2107ft 1kts
20-Apr-20 17:09 36.086822 -115.154236 152 2109ft 2kts
20-Apr-20 17:10 36.087399 -115.154339 176 2108ft 2kts
20-Apr-20 17:11 36.087873 -115.154042 264 2106ft 1kts
20-Apr-20 17:12 36.087871 -115.153925 272 2106ft 0kts
20-Apr-20 17:13 36.087871 -115.153925 272 2106ft 0kts
20-Apr-20 17:14 36.087871 -115.153925 272 2106ft 0kts
20-Apr-20 17:15 36.087872 -115.153938 272 2106ft 1kts
20-Apr-20 17:16 36.087602 -115.156741 269 2115ft 18kts
20-Apr-20 17:17 36.081976 -115.160836 205 2143ft 27kts
20-Apr-20 17:18 36.076598 -115.163870 204 2166ft 16kts
20-Apr-20 17:19 36.074198 -115.165258 207 2177ft 3kts
20-Apr-20 17:20 36.073955 -115.165515 238 2178ft 1kts
20-Apr-20 17:21 36.074124 -115.166892 294 2182ft 11kts
20-Apr-20 17:22 36.086872 -115.160283 24 2130ft 160kts
20-Apr-20 17:23 36.137026 -115.145269 333 5039ft 192kts
20-Apr-20 17:24 36.141365 -115.200025 241 7882ft 218kts
20-Apr-20 17:25 36.112215 -115.276556 240 9018ft 254kts
20-Apr-20 17:26 36.044449 -115.322976 202 9028ft 300kts
20-Apr-20 17:27 35.968313 -115.362377 202 9031ft 295kts
20-Apr-20 17:28 35.895638 -115.407563 233 9039ft 296kts
20-Apr-20 17:29 35.888007 -115.508327 271 10783ft 319kts
20-Apr-20 17:30 35.890315 -115.632395 271 11030ft 382kts
20-Apr-20 17:31 35.892481 -115.763394 269 12384ft 390kts
20-Apr-20 17:32 35.894603 -115.897186 269 14984ft 395kts
20-Apr-20 17:33 35.937298 -116.018909 314 17044ft 418kts
20-Apr-20 17:34 36.023210 -116.117526 314 18919ft 428kts
20-Apr-20 17:35 36.110870 -116.218745 314 20615ft 437kts
20-Apr-20 17:36 36.200291 -116.322275 313 22135ft 445kts
20-Apr-20 17:37 36.277292 -116.411696 313 23313ft 450kts
20-Apr-20 17:38 36.369147 -116.518690 313 24543ft 457kts
20-Apr-20 17:39 36.462214 -116.627461 313 25687ft 462kts
20-Apr-20 17:40 36.556268 -116.737216 315 26862ft 466kts
20-Apr-20 17:41 36.664977 -116.824512 324 28410ft 464kts
20-Apr-20 17:42 36.774027 -116.907513 323 29882ft 457kts
20-Apr-20 17:43 36.881305 -116.989423 323 30047ft 449kts
20-Apr-20 17:44 36.987608 -117.070834 324 30086ft 447kts
20-Apr-20 17:45 37.095149 -117.153448 326 30104ft 461kts
20-Apr-20 17:46 37.205150 -117.238258 327 30133ft 467kts
20-Apr-20 17:47 37.314094 -117.327202 319 30123ft 466kts
20-Apr-20 17:48 37.411524 -117.431395 318 30078ft 459kts
20-Apr-20 17:49 37.490597 -117.554766 290 30073ft 456kts
20-Apr-20 17:50 37.510014 -117.710470 274 30061ft 452kts
20-Apr-20 17:51 37.522650 -117.867599 275 30031ft 451kts
20-Apr-20 17:52 37.535212 -118.025033 275 30044ft 452kts
20-Apr-20 17:53 37.547599 -118.182932 275 30063ft 453kts
20-Apr-20 17:54 37.559737 -118.340411 275 30082ft 453kts
20-Apr-20 17:55 37.571687 -118.498239 275 30139ft 454kts
20-Apr-20 17:56 37.583192 -118.652926 274 30169ft 453kts
20-Apr-20 17:57 37.594591 -118.808962 274 30163ft 453kts
20-Apr-20 17:58 37.605955 -118.967467 274 30162ft 452kts
20-Apr-20 17:59 37.617042 -119.125111 274 30160ft 451kts
20-Apr-20 18:00 37.627911 -119.282632 274 30151ft 451kts
20-Apr-20 18:01 37.638530 -119.439636 274 30153ft 451kts
20-Apr-20 18:02 37.649008 -119.597701 274 30158ft 451kts
20-Apr-20 18:03 37.659187 -119.754490 273 29591ft 450kts
20-Apr-20 18:04 37.669221 -119.912167 274 28616ft 453kts
20-Apr-20 18:05 37.679143 -120.071549 274 27640ft 456kts
20-Apr-20 18:06 37.688886 -120.231573 274 27148ft 460kts
20-Apr-20 18:07 37.697943 -120.389731 270 27156ft 433kts
20-Apr-20 18:08 37.683730 -120.536922 261 26100ft 413kts
20-Apr-20 18:09 37.667274 -120.677065 261 23981ft 403kts
20-Apr-20 18:10 37.650473 -120.812864 261 22046ft 383kts
20-Apr-20 18:11 37.633822 -120.956313 261 20060ft 427kts
20-Apr-20 18:12 37.614897 -121.098698 260 18158ft 410kts
20-Apr-20 18:13 37.596418 -121.235694 259 16253ft 365kts
20-Apr-20 18:14 37.582140 -121.353615 260 13593ft 331kts
20-Apr-20 18:15 37.569819 -121.461160 260 11785ft 303kts
20-Apr-20 18:16 37.557745 -121.565326 260 10354ft 290kts
20-Apr-20 18:17 37.542469 -121.659506 252 9512ft 265kts
20-Apr-20 18:18 37.521522 -121.747292 252 8289ft 257kts
20-Apr-20 18:19 37.501577 -121.830525 253 7225ft 250kts
20-Apr-20 18:20 37.495830 -121.909980 279 6874ft 219kts
20-Apr-20 18:21 37.506704 -121.984884 279 5702ft 218kts
20-Apr-20 18:22 37.517750 -122.061280 279 3845ft 223kts
20-Apr-20 18:23 37.528209 -122.133966 279 3124ft 177kts
20-Apr-20 18:24 37.539024 -122.184187 293 3021ft 141kts
20-Apr-20 18:25 37.557155 -122.227689 296 2325ft 139kts
20-Apr-20 18:26 37.574104 -122.268278 294 1622ft 127kts
20-Apr-20 18:27 37.590337 -122.307572 294 968ft 126kts
20-Apr-20 18:28 37.606635 -122.345940 294 275ft 121kts
20-Apr-20 18:29 37.617343 -122.371907 297 16ft 34kts
20-Apr-20 18:30 37.619050 -122.380565 293 32ft 17kts
20-Apr-20 18:31 37.620117 -122.386161 288 32ft 4kts

Navigation Log

Ident Type
Flight plan parsing failed, navigation log unavailable